createdAt,value
2022-10-11T03:55:10.650Z,72.25
2022-10-11T03:57:57.522Z,72.54
2022-10-11T04:00:44.373Z,72.51
2022-10-11T04:03:31.046Z,72.45
2022-10-11T04:06:17.686Z,72.45
2022-10-11T04:09:05.009Z,72.52
2022-10-11T04:11:51.681Z,72.35
2022-10-11T04:14:38.323Z,72.42
2022-10-11T04:17:24.969Z,72.82
2022-10-11T04:20:11.721Z,72.44
2022-10-11T04:22:58.373Z,72.63
2022-10-11T04:25:45.509Z,72.52
2022-10-11T04:28:32.513Z,72.67
2022-10-11T04:31:19.238Z,72.93
2022-10-11T04:34:05.940Z,72.82
2022-10-11T04:36:52.560Z,72.61
2022-10-11T04:39:39.217Z,72.76
2022-10-11T04:42:25.858Z,72.97
2022-10-11T04:45:12.550Z,72.85
2022-10-11T04:47:59.221Z,72.66
2022-10-11T04:50:46.049Z,72.79
2022-10-11T04:53:32.691Z,72.65
2022-10-11T04:56:19.433Z,73.06
2022-10-11T04:59:06.144Z,72.94
2022-10-11T05:01:53.196Z,73.00
2022-10-11T05:04:39.918Z,72.88
2022-10-11T05:07:26.565Z,73.01
2022-10-11T05:10:13.203Z,72.98
2022-10-11T05:12:59.841Z,72.93
2022-10-11T05:15:46.473Z,72.99
2022-10-11T05:18:33.125Z,72.92
2022-10-11T05:21:20.711Z,73.05
2022-10-11T05:24:07.424Z,72.78
2022-10-11T05:26:54.053Z,72.76
2022-10-11T05:29:40.719Z,72.81
2022-10-11T05:32:28.104Z,72.88
2022-10-11T05:35:14.945Z,72.96
2022-10-11T05:38:01.721Z,72.90
2022-10-11T05:40:48.628Z,73.61
2022-10-11T05:43:35.293Z,73.65
2022-10-11T05:46:22.209Z,74.25
2022-10-11T05:49:08.876Z,74.24
2022-10-11T05:51:55.549Z,74.17
2022-10-11T05:54:42.209Z,74.07
2022-10-11T05:57:28.948Z,73.64
2022-10-11T06:00:15.774Z,73.94
2022-10-11T06:03:02.426Z,73.57
2022-10-11T06:05:52.136Z,73.75
2022-10-11T06:08:41.374Z,73.84
2022-10-11T06:11:28.144Z,73.81
2022-10-11T06:14:14.827Z,73.39
2022-10-11T06:17:01.488Z,73.49
2022-10-11T06:19:48.129Z,73.44
2022-10-11T06:22:34.775Z,73.26
2022-10-11T06:25:21.633Z,73.42
2022-10-11T06:28:08.323Z,73.01
2022-10-11T06:30:55.515Z,73.53
2022-10-11T06:33:42.371Z,73.64
2022-10-11T06:36:29.216Z,73.79
2022-10-11T06:39:15.894Z,73.54
2022-10-11T06:42:02.531Z,73.49
2022-10-11T06:44:49.205Z,73.35
2022-10-11T06:47:35.869Z,73.45
2022-10-11T06:50:40.707Z,73.52
2022-10-11T06:53:29.215Z,73.73
2022-10-11T06:56:15.864Z,73.56
2022-10-11T06:59:03.775Z,73.62
2022-10-11T07:01:50.476Z,73.51
2022-10-11T07:04:37.161Z,73.22
2022-10-11T07:07:23.809Z,73.36
2022-10-11T07:10:10.577Z,73.71
2022-10-11T07:12:57.361Z,73.69
2022-10-11T07:15:44.009Z,73.87
2022-10-11T07:18:30.900Z,73.36
2022-10-11T07:21:17.558Z,73.83
2022-10-11T07:24:04.308Z,73.61
2022-10-11T07:26:50.971Z,73.62
2022-10-11T07:29:37.623Z,73.34
2022-10-11T07:32:24.336Z,73.47
2022-10-11T07:35:10.998Z,73.94
2022-10-11T07:37:57.667Z,73.71
2022-10-11T07:40:44.977Z,73.75
2022-10-11T07:43:31.691Z,73.42
2022-10-11T07:46:18.723Z,73.49
2022-10-11T07:49:05.448Z,73.62
2022-10-11T07:51:52.105Z,73.44
2022-10-11T07:54:40.063Z,73.53
2022-10-11T07:57:26.718Z,73.68
2022-10-11T08:00:13.767Z,73.93
2022-10-11T08:03:06.315Z,73.83
2022-10-11T08:05:53.045Z,73.74
2022-10-11T08:08:47.097Z,73.95
2022-10-11T08:11:34.914Z,73.92
2022-10-11T08:14:22.081Z,74.16
2022-10-11T08:17:08.716Z,73.83
2022-10-11T08:19:55.415Z,73.84
2022-10-11T08:22:42.098Z,73.91
2022-10-11T08:25:28.778Z,73.99
2022-10-11T08:28:18.533Z,73.96
2022-10-11T08:31:05.319Z,74.04
2022-10-11T08:33:51.989Z,73.85
2022-10-11T08:36:38.823Z,75.11
2022-10-11T08:39:25.509Z,75.42
2022-10-11T08:42:30.580Z,75.26
2022-10-11T08:45:43.423Z,74.68
2022-10-11T08:48:32.600Z,74.07
2022-10-11T08:51:28.091Z,73.77
2022-10-11T08:54:16.933Z,73.34
2022-10-11T08:57:04.652Z,73.11
2022-10-11T08:59:56.279Z,72.86
2022-10-11T09:03:07.621Z,73.20
2022-10-11T09:05:58.112Z,72.68
2022-10-11T09:08:48.496Z,72.47
2022-10-11T09:11:47.335Z,72.19
2022-10-11T09:14:34.082Z,72.56
2022-10-11T09:17:33.706Z,72.83
2022-10-11T09:20:41.510Z,72.46
2022-10-11T09:23:39.346Z,72.14
2022-10-11T09:26:28.964Z,72.56
2022-10-11T09:29:25.764Z,72.66
2022-10-11T09:32:13.411Z,72.78
2022-10-11T09:35:01.867Z,72.75
2022-10-11T09:37:51.211Z,72.75
2022-10-11T09:40:56.740Z,72.26
2022-10-11T09:43:50.012Z,72.42
2022-10-11T09:46:45.699Z,72.82
2022-10-11T09:49:43.520Z,73.08
2022-10-11T09:52:30.200Z,72.43
2022-10-11T09:55:30.155Z,72.57
2022-10-11T09:58:30.392Z,73.11
2022-10-11T10:01:23.869Z,72.88
2022-10-11T10:04:11.847Z,72.63
2022-10-11T10:07:10.272Z,72.39
2022-10-11T10:09:57.420Z,72.76
2022-10-11T10:12:44.117Z,72.77
2022-10-11T10:15:32.114Z,73.03
2022-10-11T10:18:20.829Z,73.26
2022-10-11T10:21:08.758Z,72.89
2022-10-11T10:23:55.667Z,72.78
2022-10-11T10:26:42.501Z,72.49
2022-10-11T10:29:29.154Z,73.31
2022-10-11T10:32:23.555Z,72.55
2022-10-11T10:35:15.111Z,72.24
2022-10-11T10:38:14.058Z,72.86
2022-10-11T10:41:09.617Z,72.46
2022-10-11T10:43:56.810Z,72.49
2022-10-11T10:46:46.348Z,72.81
2022-10-11T10:49:54.225Z,73.00
2022-10-11T10:53:00.466Z,73.37
2022-10-11T10:55:52.594Z,73.18
2022-10-11T10:58:57.756Z,72.96
2022-10-11T11:02:21.402Z,73.24
2022-10-11T11:05:18.731Z,72.87
2022-10-11T11:08:20.682Z,73.38
2022-10-11T11:11:13.250Z,73.60
2022-10-11T11:14:12.981Z,73.46
2022-10-11T11:17:09.126Z,73.60
2022-10-11T11:20:14.643Z,73.41
2022-10-11T11:23:08.133Z,73.01
2022-10-11T11:25:57.463Z,73.05
2022-10-11T11:28:44.560Z,73.31
2022-10-11T11:31:38.624Z,72.45
2022-10-11T11:34:29.270Z,72.89
2022-10-11T11:37:26.220Z,72.84
2022-10-11T11:40:19.663Z,72.69
2022-10-11T11:43:18.330Z,72.67
2022-10-11T11:46:15.648Z,72.74
2022-10-11T11:49:03.687Z,72.71
2022-10-11T11:51:50.327Z,72.13
2022-10-11T11:54:49.335Z,72.68
2022-10-11T11:57:49.857Z,72.28
2022-10-11T12:00:58.718Z,72.57
2022-10-11T12:03:49.714Z,72.91
2022-10-11T12:06:47.678Z,71.92
2022-10-11T12:09:39.789Z,72.19
2022-10-11T12:12:27.757Z,71.69
2022-10-11T12:15:17.454Z,72.84
2022-10-11T12:18:05.714Z,72.62
2022-10-11T12:21:06.371Z,72.56
2022-10-11T12:23:53.911Z,71.76
2022-10-11T12:26:41.702Z,71.99
2022-10-11T12:29:43.428Z,71.49
2022-10-11T12:32:36.536Z,71.94
2022-10-11T12:35:35.044Z,71.52
2022-10-11T12:38:30.831Z,71.63
2022-10-11T12:41:18.167Z,71.30
2022-10-11T12:44:12.797Z,71.01
2022-10-11T12:47:00.940Z,71.19
2022-10-11T12:49:50.228Z,71.48
2022-10-11T12:52:42.053Z,71.70
2022-10-11T12:55:28.975Z,71.31
2022-10-11T12:58:19.042Z,71.24
2022-10-11T13:01:10.494Z,71.34
2022-10-11T13:03:58.096Z,70.61
2022-10-11T13:06:49.354Z,70.92
2022-10-11T13:09:39.188Z,70.94
2022-10-11T13:12:25.879Z,71.23
2022-10-11T13:15:13.673Z,71.08
2022-10-11T13:18:00.781Z,70.70
2022-10-11T13:20:47.509Z,70.99
2022-10-11T13:23:38.004Z,70.48
2022-10-11T13:26:25.538Z,70.35
2022-10-11T13:29:16.676Z,70.87
2022-10-11T13:32:23.621Z,70.47
2022-10-11T13:35:23.930Z,70.01
2022-10-11T13:38:15.232Z,70.66
2022-10-11T13:41:06.035Z,70.43
2022-10-11T13:43:53.282Z,70.04
2022-10-11T13:46:41.819Z,69.87
2022-10-11T13:49:31.368Z,70.05
2022-10-11T13:52:18.003Z,69.86
2022-10-11T13:55:04.773Z,69.99
2022-10-11T13:57:54.421Z,69.95
2022-10-11T14:00:41.138Z,70.28
2022-10-11T14:03:37.979Z,69.81
2022-10-11T14:06:25.052Z,69.65
2022-10-11T14:09:16.474Z,69.70
2022-10-11T14:12:21.878Z,69.79
2022-10-11T14:15:27.114Z,70.17
2022-10-11T14:18:33.181Z,69.49
2022-10-11T14:21:20.200Z,69.54
2022-10-11T14:24:08.030Z,69.93
2022-10-11T14:26:54.743Z,69.66
2022-10-11T14:30:00.314Z,69.66
2022-10-11T14:32:51.914Z,69.56
2022-10-11T14:35:38.726Z,69.60
2022-10-11T14:38:25.458Z,69.71
2022-10-11T14:41:12.199Z,69.46
2022-10-11T14:43:58.913Z,69.69
2022-10-11T14:46:46.054Z,69.39
2022-10-11T14:49:34.508Z,69.71
2022-10-11T14:52:21.737Z,69.29
2022-10-11T14:55:08.426Z,69.58
2022-10-11T14:57:56.393Z,69.33
2022-10-11T15:00:43.234Z,69.30
2022-10-11T15:03:29.942Z,69.22
2022-10-11T15:06:18.479Z,69.24
2022-10-11T15:09:05.828Z,69.23
2022-10-11T15:11:54.212Z,69.57
2022-10-11T15:14:41.035Z,69.46
2022-10-11T15:17:27.746Z,69.42
2022-10-11T15:20:19.336Z,69.47
2022-10-11T15:23:07.759Z,69.24
2022-10-11T15:25:54.426Z,69.47
2022-10-11T15:28:41.235Z,69.57
2022-10-11T15:31:31.079Z,69.42
2022-10-11T15:34:17.877Z,69.12
2022-10-11T15:37:04.535Z,69.23
2022-10-11T15:39:51.196Z,69.28
2022-10-11T15:42:37.847Z,69.53
2022-10-11T15:45:24.701Z,69.35
2022-10-11T15:48:15.030Z,69.57
2022-10-11T15:51:01.676Z,69.37
2022-10-11T15:53:48.552Z,69.26
2022-10-11T15:56:35.332Z,69.56
2022-10-11T15:59:22.004Z,69.40
2022-10-11T16:02:13.163Z,69.34
2022-10-11T16:04:59.836Z,69.54
2022-10-11T16:07:46.595Z,69.17
2022-10-11T16:10:33.289Z,69.37
2022-10-11T16:13:19.980Z,69.91
2022-10-11T16:16:07.845Z,69.73
2022-10-11T16:18:54.927Z,69.68
2022-10-11T16:21:41.618Z,69.24
2022-10-11T16:24:28.314Z,69.67
2022-10-11T16:27:18.666Z,69.60
2022-10-11T16:30:05.842Z,69.59
2022-10-11T16:32:54.917Z,69.41
2022-10-11T16:35:41.822Z,69.70
2022-10-11T16:38:35.997Z,69.91
2022-10-11T16:41:22.785Z,70.11
2022-10-11T16:44:13.212Z,69.60
2022-10-11T16:47:00.024Z,69.61
2022-10-11T16:49:46.713Z,69.74
2022-10-11T16:52:33.389Z,69.54
2022-10-11T16:55:20.210Z,69.53
2022-10-11T16:58:07.618Z,70.21
2022-10-11T17:00:54.377Z,69.58
2022-10-11T17:03:41.086Z,69.87
2022-10-11T17:06:27.829Z,69.97
2022-10-11T17:09:14.607Z,69.65
2022-10-11T17:12:01.296Z,70.14
2022-10-11T17:14:48.043Z,69.87
2022-10-11T17:17:34.720Z,69.95
2022-10-11T17:20:21.406Z,70.09
2022-10-11T17:23:08.179Z,70.34
2022-10-11T17:25:54.861Z,70.27
2022-10-11T17:28:41.551Z,69.72
2022-10-11T17:31:30.051Z,70.46
2022-10-11T17:34:16.857Z,70.52
2022-10-11T17:37:03.679Z,69.75
2022-10-11T17:39:50.404Z,69.99
2022-10-11T17:42:37.055Z,69.96
2022-10-11T17:45:23.729Z,69.98
2022-10-11T17:48:10.402Z,70.45
2022-10-11T17:50:57.096Z,70.71
2022-10-11T17:53:44.106Z,70.34
2022-10-11T17:56:35.217Z,70.06
2022-10-11T17:59:27.280Z,69.90
2022-10-11T18:02:14.609Z,70.35
2022-10-11T18:05:01.334Z,69.84
2022-10-11T18:07:48.907Z,70.17
2022-10-11T18:10:35.944Z,70.76
2022-10-11T18:13:22.609Z,70.19
2022-10-11T18:16:10.590Z,70.37
2022-10-11T18:18:58.377Z,70.50
2022-10-11T18:21:45.054Z,70.09
2022-10-11T18:24:31.853Z,70.04
2022-10-11T18:27:18.481Z,70.25
2022-10-11T18:30:05.499Z,70.48
2022-10-11T18:32:52.330Z,70.33
2022-10-11T18:35:38.998Z,70.74
2022-10-11T18:38:25.647Z,70.65
2022-10-11T18:41:14.674Z,71.14
2022-10-11T18:44:02.459Z,71.25
2022-10-11T18:46:50.292Z,70.61
2022-10-11T18:49:37.003Z,70.25
2022-10-11T18:52:23.671Z,70.84
2022-10-11T18:55:10.312Z,71.47
2022-10-11T18:57:57.404Z,70.77
2022-10-11T19:00:46.607Z,70.86
2022-10-11T19:03:35.248Z,71.11
2022-10-11T19:06:23.118Z,71.34
2022-10-11T19:09:11.313Z,71.32
2022-10-11T19:12:00.515Z,70.68
2022-10-11T19:14:47.668Z,71.33
2022-10-11T19:17:34.336Z,71.44
2022-10-11T19:20:21.006Z,71.44
2022-10-11T19:23:07.659Z,71.12
2022-10-11T19:25:57.774Z,71.46
2022-10-11T19:28:44.686Z,70.82
2022-10-11T19:31:31.614Z,71.21
2022-10-11T19:34:18.679Z,71.10
2022-10-11T19:37:09.524Z,71.10
2022-10-11T19:39:56.248Z,71.40
2022-10-11T19:42:43.024Z,71.51
2022-10-11T19:45:29.722Z,71.88
2022-10-11T19:48:16.662Z,71.09
2022-10-11T19:51:04.252Z,71.85
2022-10-11T19:54:01.121Z,71.26
2022-10-11T19:56:47.768Z,71.76
2022-10-11T19:59:34.415Z,71.34
2022-10-11T20:02:21.187Z,71.90
2022-10-11T20:05:08.056Z,71.71
2022-10-11T20:07:54.741Z,70.93
2022-10-11T20:10:41.422Z,71.37
2022-10-11T20:13:31.194Z,71.11
2022-10-11T20:16:22.559Z,71.51
2022-10-11T20:19:09.231Z,71.58
2022-10-11T20:21:55.865Z,71.85
2022-10-11T20:24:42.515Z,71.66
2022-10-11T20:27:31.582Z,71.33
2022-10-11T20:30:18.699Z,71.73
2022-10-11T20:33:05.332Z,71.80
2022-10-11T20:36:04.414Z,71.87
2022-10-11T20:38:51.722Z,71.73
2022-10-11T20:41:39.991Z,71.35
2022-10-11T20:44:26.796Z,71.54
2022-10-11T20:47:13.460Z,71.78
2022-10-11T20:50:00.123Z,71.54
2022-10-11T20:52:46.779Z,72.06
2022-10-11T20:55:33.462Z,71.71
2022-10-11T20:58:20.232Z,71.75
2022-10-11T21:01:14.026Z,71.84
2022-10-11T21:04:01.219Z,71.63
2022-10-11T21:06:48.129Z,71.71
2022-10-11T21:09:34.800Z,71.75
2022-10-11T21:12:21.474Z,71.81
2022-10-11T21:15:08.256Z,72.00
2022-10-11T21:17:54.949Z,71.97
2022-10-11T21:20:41.921Z,72.27
2022-10-11T21:23:28.561Z,72.26
2022-10-11T21:26:17.878Z,71.96
2022-10-11T21:29:04.568Z,72.10
2022-10-11T21:31:51.217Z,71.87
2022-10-11T21:34:37.881Z,72.07
2022-10-11T21:37:24.526Z,72.54
2022-10-11T21:40:11.284Z,72.25
2022-10-11T21:42:57.985Z,72.22
2022-10-11T21:45:44.756Z,72.43
2022-10-11T21:48:31.390Z,72.15
2022-10-11T21:51:27.728Z,72.40
2022-10-11T21:54:14.509Z,72.41
2022-10-11T21:57:01.213Z,72.57
2022-10-11T21:59:47.868Z,72.80
2022-10-11T22:02:34.736Z,72.27
2022-10-11T22:05:21.632Z,72.36
2022-10-11T22:08:08.279Z,72.26
2022-10-11T22:10:56.129Z,72.34
2022-10-11T22:13:42.806Z,72.44
2022-10-11T22:16:29.502Z,72.25
2022-10-11T22:19:16.170Z,72.67
2022-10-11T22:22:02.826Z,72.53
2022-10-11T22:24:49.478Z,72.40
2022-10-11T22:27:36.136Z,72.44
2022-10-11T22:30:22.803Z,72.44
2022-10-11T22:33:09.428Z,72.58
2022-10-11T22:35:56.922Z,72.40
2022-10-11T22:38:43.634Z,72.73
2022-10-11T22:41:30.294Z,72.79
2022-10-11T22:44:16.953Z,72.83
2022-10-11T22:47:03.599Z,73.00
2022-10-11T22:49:50.292Z,73.05
2022-10-11T22:52:36.959Z,73.09
2022-10-11T22:55:23.615Z,73.27
2022-10-11T22:58:10.361Z,73.07
2022-10-11T23:00:57.028Z,73.07
2022-10-11T23:03:46.901Z,73.15
2022-10-11T23:06:33.625Z,73.00
2022-10-11T23:09:20.275Z,72.96
2022-10-11T23:12:07.192Z,73.56
2022-10-11T23:14:53.854Z,72.98
2022-10-11T23:17:40.505Z,73.10
2022-10-11T23:20:27.157Z,72.99
2022-10-11T23:23:13.822Z,73.03
2022-10-11T23:26:01.400Z,72.92
2022-10-11T23:28:48.169Z,73.15
2022-10-11T23:31:34.871Z,73.33
2022-10-11T23:34:21.530Z,73.47
2022-10-11T23:37:08.159Z,73.17
2022-10-11T23:39:54.871Z,73.32
2022-10-11T23:42:41.509Z,73.15
2022-10-11T23:45:28.342Z,73.33
2022-10-11T23:48:15.065Z,73.34
2022-10-11T23:51:01.745Z,73.32
2022-10-11T23:53:48.440Z,73.45
2022-10-11T23:56:35.095Z,73.46
2022-10-11T23:59:21.791Z,73.42
